sensor_id;sensor_type;location;lat;lon;timestamp;temperature;humidity
20712;DHT22;10517;50.742;4.224;2023-09-30T00:00:43;13.10;99.90
20712;DHT22;10517;50.742;4.224;2023-09-30T00:03:08;13.00;99.90
20712;DHT22;10517;50.742;4.224;2023-09-30T00:05:36;13.00;99.90
20712;DHT22;10517;50.742;4.224;2023-09-30T00:08:03;12.90;99.90
20712;DHT22;10517;50.742;4.224;2023-09-30T00:10:29;13.00;99.90
20712;DHT22;10517;50.742;4.224;2023-09-30T00:12:58;12.90;99.90
20712;DHT22;10517;50.742;4.224;2023-09-30T00:15:24;13.00;99.90
20712;DHT22;10517;50.742;4.224;2023-09-30T00:17:50;13.00;99.90
20712;DHT22;10517;50.742;4.224;2023-09-30T00:20:16;13.00;99.90
20712;DHT22;10517;50.742;4.224;2023-09-30T00:22:42;13.00;99.90
20712;DHT22;10517;50.742;4.224;2023-09-30T00:25:08;13.00;99.90
20712;DHT22;10517;50.742;4.224;2023-09-30T00:27:36;13.00;99.90
20712;DHT22;10517;50.742;4.224;2023-09-30T00:30:02;13.00;99.90
20712;DHT22;10517;50.742;4.224;2023-09-30T00:32:29;13.00;99.90
20712;DHT22;10517;50.742;4.224;2023-09-30T00:34:55;13.00;99.90
20712;DHT22;10517;50.742;4.224;2023-09-30T00:37:20;13.00;99.90
20712;DHT22;10517;50.742;4.224;2023-09-30T00:39:46;13.00;99.90
20712;DHT22;10517;50.742;4.224;2023-09-30T00:42:12;12.90;99.90
20712;DHT22;10517;50.742;4.224;2023-09-30T00:44:38;12.90;99.90
20712;DHT22;10517;50.742;4.224;2023-09-30T00:47:04;12.90;99.90
20712;DHT22;10517;50.742;4.224;2023-09-30T00:49:31;12.90;99.90
20712;DHT22;10517;50.742;4.224;2023-09-30T00:51:58;13.00;99.90
20712;DHT22;10517;50.742;4.224;2023-09-30T00:54:25;12.90;99.90
20712;DHT22;10517;50.742;4.224;2023-09-30T00:56:53;13.00;99.90
20712;DHT22;10517;50.742;4.224;2023-09-30T00:59:21;13.00;99.90
20712;DHT22;10517;50.742;4.224;2023-09-30T01:01:47;13.10;99.90
20712;DHT22;10517;50.742;4.224;2023-09-30T01:04:14;13.10;99.90
20712;DHT22;10517;50.742;4.224;2023-09-30T01:06:40;13.10;99.90
20712;DHT22;10517;50.742;4.224;2023-09-30T01:09:07;13.20;99.90
20712;DHT22;10517;50.742;4.224;2023-09-30T01:11:34;13.10;99.90
20712;DHT22;10517;50.742;4.224;2023-09-30T01:14:00;13.10;99.90
20712;DHT22;10517;50.742;4.224;2023-09-30T01:16:25;13.10;99.90
20712;DHT22;10517;50.742;4.224;2023-09-30T01:18:51;13.20;99.90
20712;DHT22;10517;50.742;4.224;2023-09-30T01:21:18;13.20;99.90
20712;DHT22;10517;50.742;4.224;2023-09-30T01:23:44;13.30;99.90
20712;DHT22;10517;50.742;4.224;2023-09-30T01:26:12;13.30;99.90
20712;DHT22;10517;50.742;4.224;2023-09-30T01:28:39;13.20;99.90
20712;DHT22;10517;50.742;4.224;2023-09-30T01:31:06;13.10;99.90
20712;DHT22;10517;50.742;4.224;2023-09-30T01:33:32;13.10;99.90
20712;DHT22;10517;50.742;4.224;2023-09-30T01:35:59;13.00;99.90
20712;DHT22;10517;50.742;4.224;2023-09-30T01:38:25;13.00;99.90
20712;DHT22;10517;50.742;4.224;2023-09-30T01:40:51;13.00;99.90
20712;DHT22;10517;50.742;4.224;2023-09-30T01:43:17;13.00;99.90
20712;DHT22;10517;50.742;4.224;2023-09-30T01:45:43;12.90;99.90
20712;DHT22;10517;50.742;4.224;2023-09-30T01:48:10;12.90;99.90
20712;DHT22;10517;50.742;4.224;2023-09-30T01:50:38;12.90;99.90
20712;DHT22;10517;50.742;4.224;2023-09-30T01:53:04;12.90;99.90
20712;DHT22;10517;50.742;4.224;2023-09-30T01:55:35;12.90;99.90
20712;DHT22;10517;50.742;4.224;2023-09-30T01:58:02;12.90;99.90
20712;DHT22;10517;50.742;4.224;2023-09-30T02:00:28;12.90;99.90
20712;DHT22;10517;50.742;4.224;2023-09-30T02:02:55;12.90;99.90
20712;DHT22;10517;50.742;4.224;2023-09-30T02:05:22;13.00;99.90
20712;DHT22;10517;50.742;4.224;2023-09-30T02:07:49;13.00;99.90
20712;DHT22;10517;50.742;4.224;2023-09-30T02:10:15;13.00;99.90
20712;DHT22;10517;50.742;4.224;2023-09-30T02:12:41;13.00;99.90
20712;DHT22;10517;50.742;4.224;2023-09-30T02:15:07;13.00;99.90
20712;DHT22;10517;50.742;4.224;2023-09-30T02:17:33;13.00;99.90
20712;DHT22;10517;50.742;4.224;2023-09-30T02:19:59;12.90;99.90
20712;DHT22;10517;50.742;4.224;2023-09-30T02:22:27;12.90;99.90
20712;DHT22;10517;50.742;4.224;2023-09-30T02:24:53;12.80;99.90
20712;DHT22;10517;50.742;4.224;2023-09-30T02:27:20;12.80;99.90
20712;DHT22;10517;50.742;4.224;2023-09-30T02:29:45;12.80;99.90
20712;DHT22;10517;50.742;4.224;2023-09-30T02:32:11;12.70;99.90
20712;DHT22;10517;50.742;4.224;2023-09-30T02:34:39;12.70;99.90
20712;DHT22;10517;50.742;4.224;2023-09-30T02:37:05;12.70;99.90
20712;DHT22;10517;50.742;4.224;2023-09-30T02:39:30;12.70;99.90
20712;DHT22;10517;50.742;4.224;2023-09-30T02:41:56;12.70;99.90
20712;DHT22;10517;50.742;4.224;2023-09-30T02:44:22;12.70;99.90
20712;DHT22;10517;50.742;4.224;2023-09-30T02:46:48;12.60;99.90
20712;DHT22;10517;50.742;4.224;2023-09-30T02:49:13;12.60;99.90
20712;DHT22;10517;50.742;4.224;2023-09-30T02:51:39;12.50;99.90
20712;DHT22;10517;50.742;4.224;2023-09-30T02:54:05;12.60;99.90
20712;DHT22;10517;50.742;4.224;2023-09-30T02:56:31;12.60;99.90
20712;DHT22;10517;50.742;4.224;2023-09-30T02:58:56;12.60;99.90
20712;DHT22;10517;50.742;4.224;2023-09-30T03:01:24;12.60;99.90
20712;DHT22;10517;50.742;4.224;2023-09-30T03:03:52;12.60;99.90
20712;DHT22;10517;50.742;4.224;2023-09-30T03:06:17;12.50;99.90
20712;DHT22;10517;50.742;4.224;2023-09-30T03:08:44;12.50;99.90
20712;DHT22;10517;50.742;4.224;2023-09-30T03:11:09;12.50;99.90
20712;DHT22;10517;50.742;4.224;2023-09-30T03:13:36;12.50;99.90
20712;DHT22;10517;50.742;4.224;2023-09-30T03:16:03;12.40;99.90
20712;DHT22;10517;50.742;4.224;2023-09-30T03:18:29;12.40;99.90
20712;DHT22;10517;50.742;4.224;2023-09-30T03:21:00;12.40;99.90
20712;DHT22;10517;50.742;4.224;2023-09-30T03:23:27;12.30;99.90
20712;DHT22;10517;50.742;4.224;2023-09-30T03:25:57;12.30;99.90
20712;DHT22;10517;50.742;4.224;2023-09-30T03:28:23;12.30;99.90
20712;DHT22;10517;50.742;4.224;2023-09-30T03:30:49;12.20;99.90
20712;DHT22;10517;50.742;4.224;2023-09-30T03:33:14;12.20;99.90
20712;DHT22;10517;50.742;4.224;2023-09-30T03:35:40;12.20;99.90
20712;DHT22;10517;50.742;4.224;2023-09-30T03:38:07;12.20;99.90
20712;DHT22;10517;50.742;4.224;2023-09-30T03:40:35;12.10;99.90
20712;DHT22;10517;50.742;4.224;2023-09-30T03:43:04;12.10;99.90
20712;DHT22;10517;50.742;4.224;2023-09-30T03:45:33;12.10;99.90
20712;DHT22;10517;50.742;4.224;2023-09-30T03:47:58;12.10;99.90
20712;DHT22;10517;50.742;4.224;2023-09-30T03:50:24;12.10;99.90
20712;DHT22;10517;50.742;4.224;2023-09-30T03:52:50;12.00;99.90
20712;DHT22;10517;50.742;4.224;2023-09-30T03:55:16;12.00;99.90
20712;DHT22;10517;50.742;4.224;2023-09-30T03:57:47;11.90;99.90
20712;DHT22;10517;50.742;4.224;2023-09-30T04:00:14;11.80;99.90
20712;DHT22;10517;50.742;4.224;2023-09-30T04:02:44;11.80;99.90
20712;DHT22;10517;50.742;4.224;2023-09-30T04:05:14;11.80;99.90
20712;DHT22;10517;50.742;4.224;2023-09-30T04:07:40;11.80;99.90
20712;DHT22;10517;50.742;4.224;2023-09-30T04:10:08;11.70;99.90
20712;DHT22;10517;50.742;4.224;2023-09-30T04:12:34;11.70;99.90
20712;DHT22;10517;50.742;4.224;2023-09-30T04:15:01;11.70;99.90
20712;DHT22;10517;50.742;4.224;2023-09-30T04:17:26;11.60;99.90
20712;DHT22;10517;50.742;4.224;2023-09-30T04:19:53;11.60;99.90
20712;DHT22;10517;50.742;4.224;2023-09-30T04:22:19;11.60;99.90
20712;DHT22;10517;50.742;4.224;2023-09-30T04:24:46;11.60;99.90
20712;DHT22;10517;50.742;4.224;2023-09-30T04:27:12;11.60;99.90
20712;DHT22;10517;50.742;4.224;2023-09-30T04:29:38;11.60;99.90
20712;DHT22;10517;50.742;4.224;2023-09-30T04:32:04;11.70;99.90
20712;DHT22;10517;50.742;4.224;2023-09-30T04:34:31;11.70;99.90
20712;DHT22;10517;50.742;4.224;2023-09-30T04:36:57;11.70;99.90
20712;DHT22;10517;50.742;4.224;2023-09-30T04:39:23;11.60;99.90
20712;DHT22;10517;50.742;4.224;2023-09-30T04:41:48;11.60;99.90
20712;DHT22;10517;50.742;4.224;2023-09-30T04:44:14;11.50;99.90
20712;DHT22;10517;50.742;4.224;2023-09-30T04:46:40;11.60;99.90
20712;DHT22;10517;50.742;4.224;2023-09-30T04:49:07;11.60;99.90
20712;DHT22;10517;50.742;4.224;2023-09-30T04:51:33;11.60;99.90
20712;DHT22;10517;50.742;4.224;2023-09-30T04:53:59;11.60;99.90
20712;DHT22;10517;50.742;4.224;2023-09-30T04:56:25;11.60;99.90
20712;DHT22;10517;50.742;4.224;2023-09-30T04:58:51;11.70;99.90
20712;DHT22;10517;50.742;4.224;2023-09-30T05:01:18;11.60;99.90
20712;DHT22;10517;50.742;4.224;2023-09-30T05:03:45;11.60;99.90
20712;DHT22;10517;50.742;4.224;2023-09-30T05:06:14;11.60;99.90
20712;DHT22;10517;50.742;4.224;2023-09-30T05:08:39;11.60;99.90
20712;DHT22;10517;50.742;4.224;2023-09-30T05:11:05;11.60;99.90
20712;DHT22;10517;50.742;4.224;2023-09-30T05:13:31;11.70;99.90
20712;DHT22;10517;50.742;4.224;2023-09-30T05:15:59;11.70;99.90
20712;DHT22;10517;50.742;4.224;2023-09-30T05:18:25;11.70;99.90
20712;DHT22;10517;50.742;4.224;2023-09-30T05:20:51;11.60;99.90
20712;DHT22;10517;50.742;4.224;2023-09-30T05:23:17;11.60;99.90
20712;DHT22;10517;50.742;4.224;2023-09-30T05:25:43;11.60;99.90
20712;DHT22;10517;50.742;4.224;2023-09-30T05:28:09;11.60;99.90
20712;DHT22;10517;50.742;4.224;2023-09-30T05:30:37;11.60;99.90
20712;DHT22;10517;50.742;4.224;2023-09-30T05:33:02;11.60;99.90
20712;DHT22;10517;50.742;4.224;2023-09-30T05:35:29;11.50;99.90
20712;DHT22;10517;50.742;4.224;2023-09-30T05:37:55;11.60;99.90
20712;DHT22;10517;50.742;4.224;2023-09-30T05:40:21;11.60;99.90
20712;DHT22;10517;50.742;4.224;2023-09-30T05:42:59;11.60;99.90
20712;DHT22;10517;50.742;4.224;2023-09-30T05:45:35;11.60;99.90
20712;DHT22;10517;50.742;4.224;2023-09-30T05:48:04;11.60;99.90
20712;DHT22;10517;50.742;4.224;2023-09-30T05:50:34;11.70;99.90
20712;DHT22;10517;50.742;4.224;2023-09-30T05:53:02;11.70;99.90
20712;DHT22;10517;50.742;4.224;2023-09-30T05:55:28;11.60;99.90
20712;DHT22;10517;50.742;4.224;2023-09-30T05:57:55;11.60;99.90
20712;DHT22;10517;50.742;4.224;2023-09-30T06:00:21;11.70;99.90
20712;DHT22;10517;50.742;4.224;2023-09-30T06:02:59;11.70;99.90
20712;DHT22;10517;50.742;4.224;2023-09-30T06:05:25;11.70;99.90
20712;DHT22;10517;50.742;4.224;2023-09-30T06:07:52;11.70;99.90
20712;DHT22;10517;50.742;4.224;2023-09-30T06:10:19;11.70;99.90
20712;DHT22;10517;50.742;4.224;2023-09-30T06:12:49;11.70;99.90
20712;DHT22;10517;50.742;4.224;2023-09-30T06:15:20;11.80;99.90
20712;DHT22;10517;50.742;4.224;2023-09-30T06:17:49;11.80;99.90
20712;DHT22;10517;50.742;4.224;2023-09-30T06:20:15;11.80;99.90
20712;DHT22;10517;50.742;4.224;2023-09-30T06:22:46;11.80;99.90
20712;DHT22;10517;50.742;4.224;2023-09-30T06:25:15;11.80;99.90
20712;DHT22;10517;50.742;4.224;2023-09-30T06:27:43;11.80;99.90
20712;DHT22;10517;50.742;4.224;2023-09-30T06:30:09;11.90;99.90
20712;DHT22;10517;50.742;4.224;2023-09-30T06:32:35;11.90;99.90
20712;DHT22;10517;50.742;4.224;2023-09-30T06:35:02;11.90;99.90
20712;DHT22;10517;50.742;4.224;2023-09-30T06:37:29;12.00;99.90
20712;DHT22;10517;50.742;4.224;2023-09-30T06:39:55;12.00;99.90
20712;DHT22;10517;50.742;4.224;2023-09-30T06:42:21;12.10;99.90
20712;DHT22;10517;50.742;4.224;2023-09-30T06:44:47;12.10;99.90
20712;DHT22;10517;50.742;4.224;2023-09-30T06:47:13;12.20;99.90
20712;DHT22;10517;50.742;4.224;2023-09-30T06:49:39;12.20;99.90
20712;DHT22;10517;50.742;4.224;2023-09-30T06:52:05;12.20;99.90
20712;DHT22;10517;50.742;4.224;2023-09-30T06:54:31;12.20;99.90
20712;DHT22;10517;50.742;4.224;2023-09-30T06:56:57;12.30;99.90
20712;DHT22;10517;50.742;4.224;2023-09-30T06:59:23;12.30;99.90
20712;DHT22;10517;50.742;4.224;2023-09-30T07:01:50;12.40;99.90
20712;DHT22;10517;50.742;4.224;2023-09-30T07:04:16;12.50;99.90
20712;DHT22;10517;50.742;4.224;2023-09-30T07:06:42;12.60;99.90
20712;DHT22;10517;50.742;4.224;2023-09-30T07:09:08;12.70;99.90
20712;DHT22;10517;50.742;4.224;2023-09-30T07:11:35;12.70;99.90
20712;DHT22;10517;50.742;4.224;2023-09-30T07:14:02;12.80;99.90
20712;DHT22;10517;50.742;4.224;2023-09-30T07:16:27;12.80;99.90
20712;DHT22;10517;50.742;4.224;2023-09-30T07:18:53;12.90;99.90
20712;DHT22;10517;50.742;4.224;2023-09-30T07:21:19;13.00;99.90
20712;DHT22;10517;50.742;4.224;2023-09-30T07:23:45;13.00;99.90
20712;DHT22;10517;50.742;4.224;2023-09-30T07:26:11;13.10;99.90
20712;DHT22;10517;50.742;4.224;2023-09-30T07:28:36;13.20;99.90
20712;DHT22;10517;50.742;4.224;2023-09-30T07:31:02;13.20;99.90
20712;DHT22;10517;50.742;4.224;2023-09-30T07:33:28;13.30;99.90
20712;DHT22;10517;50.742;4.224;2023-09-30T07:35:55;13.40;99.90
20712;DHT22;10517;50.742;4.224;2023-09-30T07:38:21;13.50;99.90
20712;DHT22;10517;50.742;4.224;2023-09-30T07:40:47;13.60;99.90
20712;DHT22;10517;50.742;4.224;2023-09-30T07:43:14;13.60;99.90
20712;DHT22;10517;50.742;4.224;2023-09-30T07:45:40;13.70;99.90
20712;DHT22;10517;50.742;4.224;2023-09-30T07:48:09;13.80;99.90
20712;DHT22;10517;50.742;4.224;2023-09-30T07:50:36;13.90;99.90
20712;DHT22;10517;50.742;4.224;2023-09-30T07:53:03;13.90;99.90
20712;DHT22;10517;50.742;4.224;2023-09-30T07:55:29;14.00;99.90
20712;DHT22;10517;50.742;4.224;2023-09-30T07:57:56;14.20;99.90
20712;DHT22;10517;50.742;4.224;2023-09-30T08:00:24;14.20;99.90
20712;DHT22;10517;50.742;4.224;2023-09-30T08:02:50;14.30;99.90
20712;DHT22;10517;50.742;4.224;2023-09-30T08:05:16;14.40;99.90
20712;DHT22;10517;50.742;4.224;2023-09-30T08:07:42;14.50;99.90
20712;DHT22;10517;50.742;4.224;2023-09-30T08:10:08;14.60;99.90
20712;DHT22;10517;50.742;4.224;2023-09-30T08:12:41;14.60;99.90
20712;DHT22;10517;50.742;4.224;2023-09-30T08:15:07;14.70;99.90
20712;DHT22;10517;50.742;4.224;2023-09-30T08:17:34;14.90;99.90
20712;DHT22;10517;50.742;4.224;2023-09-30T08:20:00;15.00;99.90
20712;DHT22;10517;50.742;4.224;2023-09-30T08:22:25;15.10;99.90
20712;DHT22;10517;50.742;4.224;2023-09-30T08:24:54;15.10;99.90
20712;DHT22;10517;50.742;4.224;2023-09-30T08:27:20;15.10;99.90
20712;DHT22;10517;50.742;4.224;2023-09-30T08:29:46;15.20;99.90
20712;DHT22;10517;50.742;4.224;2023-09-30T08:32:12;15.40;99.90
20712;DHT22;10517;50.742;4.224;2023-09-30T08:34:37;15.50;99.90
20712;DHT22;10517;50.742;4.224;2023-09-30T08:37:03;15.60;99.90
20712;DHT22;10517;50.742;4.224;2023-09-30T08:39:29;15.70;99.90
20712;DHT22;10517;50.742;4.224;2023-09-30T08:41:58;15.80;99.90
20712;DHT22;10517;50.742;4.224;2023-09-30T08:44:29;16.00;99.90
20712;DHT22;10517;50.742;4.224;2023-09-30T08:46:56;16.00;99.90
20712;DHT22;10517;50.742;4.224;2023-09-30T08:49:22;16.10;99.90
20712;DHT22;10517;50.742;4.224;2023-09-30T08:51:50;16.10;99.90
20712;DHT22;10517;50.742;4.224;2023-09-30T08:54:16;16.30;99.90
20712;DHT22;10517;50.742;4.224;2023-09-30T08:56:47;16.30;99.90
20712;DHT22;10517;50.742;4.224;2023-09-30T08:59:14;16.40;99.90
20712;DHT22;10517;50.742;4.224;2023-09-30T09:01:40;16.40;99.90
20712;DHT22;10517;50.742;4.224;2023-09-30T09:04:07;16.60;99.90
20712;DHT22;10517;50.742;4.224;2023-09-30T09:06:33;16.70;99.90
20712;DHT22;10517;50.742;4.224;2023-09-30T09:09:17;16.70;99.90
20712;DHT22;10517;50.742;4.224;2023-09-30T09:11:46;16.90;99.90
20712;DHT22;10517;50.742;4.224;2023-09-30T09:14:13;16.90;99.90
20712;DHT22;10517;50.742;4.224;2023-09-30T09:16:59;17.00;99.90
20712;DHT22;10517;50.742;4.224;2023-09-30T09:19:24;17.10;99.90
20712;DHT22;10517;50.742;4.224;2023-09-30T09:21:58;17.20;99.90
20712;DHT22;10517;50.742;4.224;2023-09-30T09:24:31;17.30;99.90
20712;DHT22;10517;50.742;4.224;2023-09-30T09:27:07;17.40;99.90
20712;DHT22;10517;50.742;4.224;2023-09-30T09:29:34;17.50;99.90
20712;DHT22;10517;50.742;4.224;2023-09-30T09:32:11;17.50;99.90
20712;DHT22;10517;50.742;4.224;2023-09-30T09:34:41;17.50;99.90
20712;DHT22;10517;50.742;4.224;2023-09-30T09:37:19;17.50;99.90
20712;DHT22;10517;50.742;4.224;2023-09-30T09:39:57;17.70;99.90
20712;DHT22;10517;50.742;4.224;2023-09-30T09:42:33;17.80;99.90
20712;DHT22;10517;50.742;4.224;2023-09-30T09:45:04;17.90;99.90
20712;DHT22;10517;50.742;4.224;2023-09-30T09:47:32;18.10;99.90
20712;DHT22;10517;50.742;4.224;2023-09-30T09:49:59;18.30;99.90
20712;DHT22;10517;50.742;4.224;2023-09-30T09:52:25;18.50;99.90
20712;DHT22;10517;50.742;4.224;2023-09-30T09:54:52;18.60;99.90
20712;DHT22;10517;50.742;4.224;2023-09-30T09:57:19;18.70;99.90
20712;DHT22;10517;50.742;4.224;2023-09-30T09:59:45;18.80;99.90
20712;DHT22;10517;50.742;4.224;2023-09-30T10:02:15;18.90;99.90
20712;DHT22;10517;50.742;4.224;2023-09-30T10:04:45;19.00;99.90
20712;DHT22;10517;50.742;4.224;2023-09-30T10:07:16;19.20;99.90
20712;DHT22;10517;50.742;4.224;2023-09-30T10:09:47;19.40;99.90
20712;DHT22;10517;50.742;4.224;2023-09-30T10:12:16;19.50;99.90
20712;DHT22;10517;50.742;4.224;2023-09-30T10:14:42;19.60;99.90
20712;DHT22;10517;50.742;4.224;2023-09-30T10:17:09;19.40;99.90
20712;DHT22;10517;50.742;4.224;2023-09-30T10:19:35;19.00;99.90
20712;DHT22;10517;50.742;4.224;2023-09-30T10:24:46;19.10;99.90
20712;DHT22;10517;50.742;4.224;2023-09-30T10:35:21;20.10;99.90
20712;DHT22;10517;50.742;4.224;2023-09-30T10:40:51;19.40;99.90
20712;DHT22;10517;50.742;4.224;2023-09-30T10:43:40;19.10;99.90
20712;DHT22;10517;50.742;4.224;2023-09-30T10:48:54;19.20;99.90
20712;DHT22;10517;50.742;4.224;2023-09-30T10:51:22;19.30;99.90
20712;DHT22;10517;50.742;4.224;2023-09-30T10:53:53;19.40;99.90
20712;DHT22;10517;50.742;4.224;2023-09-30T10:56:23;19.60;99.90
20712;DHT22;10517;50.742;4.224;2023-09-30T10:58:51;19.70;99.90
20712;DHT22;10517;50.742;4.224;2023-09-30T11:01:21;19.60;99.90
20712;DHT22;10517;50.742;4.224;2023-09-30T11:03:49;19.70;99.90
20712;DHT22;10517;50.742;4.224;2023-09-30T11:06:18;19.80;99.90
20712;DHT22;10517;50.742;4.224;2023-09-30T11:11:16;20.50;99.90
20712;DHT22;10517;50.742;4.224;2023-09-30T11:13:42;20.70;99.90
20712;DHT22;10517;50.742;4.224;2023-09-30T11:16:08;21.00;99.90
20712;DHT22;10517;50.742;4.224;2023-09-30T11:18:34;21.10;99.90
20712;DHT22;10517;50.742;4.224;2023-09-30T11:21:10;21.20;99.90
20712;DHT22;10517;50.742;4.224;2023-09-30T11:23:37;20.90;99.90
20712;DHT22;10517;50.742;4.224;2023-09-30T11:26:04;20.80;99.90
20712;DHT22;10517;50.742;4.224;2023-09-30T11:28:41;20.70;99.90
20712;DHT22;10517;50.742;4.224;2023-09-30T11:31:11;20.40;99.90
20712;DHT22;10517;50.742;4.224;2023-09-30T11:33:52;20.00;99.90
20712;DHT22;10517;50.742;4.224;2023-09-30T11:36:20;20.00;99.90
20712;DHT22;10517;50.742;4.224;2023-09-30T11:38:47;19.90;99.90
20712;DHT22;10517;50.742;4.224;2023-09-30T11:41:13;20.00;99.90
20712;DHT22;10517;50.742;4.224;2023-09-30T11:43:45;20.10;99.90
20712;DHT22;10517;50.742;4.224;2023-09-30T11:46:23;20.30;99.90
20712;DHT22;10517;50.742;4.224;2023-09-30T11:48:57;20.60;99.90
20712;DHT22;10517;50.742;4.224;2023-09-30T11:51:26;20.70;99.90
20712;DHT22;10517;50.742;4.224;2023-09-30T11:53:53;20.90;99.90
20712;DHT22;10517;50.742;4.224;2023-09-30T11:56:20;20.90;99.90
20712;DHT22;10517;50.742;4.224;2023-09-30T11:58:48;20.90;99.90
20712;DHT22;10517;50.742;4.224;2023-09-30T12:01:16;20.80;99.90
20712;DHT22;10517;50.742;4.224;2023-09-30T12:03:41;20.70;99.90
20712;DHT22;10517;50.742;4.224;2023-09-30T12:06:08;20.80;99.90
20712;DHT22;10517;50.742;4.224;2023-09-30T12:08:35;20.80;99.90
20712;DHT22;10517;50.742;4.224;2023-09-30T12:11:03;20.80;99.90
20712;DHT22;10517;50.742;4.224;2023-09-30T12:13:29;20.80;99.90
20712;DHT22;10517;50.742;4.224;2023-09-30T12:15:55;21.00;99.90
20712;DHT22;10517;50.742;4.224;2023-09-30T12:18:24;20.90;99.90
20712;DHT22;10517;50.742;4.224;2023-09-30T12:20:50;21.10;99.90
20712;DHT22;10517;50.742;4.224;2023-09-30T12:23:18;21.10;99.90
20712;DHT22;10517;50.742;4.224;2023-09-30T12:25:44;21.10;99.90
20712;DHT22;10517;50.742;4.224;2023-09-30T12:28:10;21.20;99.90
20712;DHT22;10517;50.742;4.224;2023-09-30T12:30:36;21.30;99.90
20712;DHT22;10517;50.742;4.224;2023-09-30T12:33:01;21.40;99.90
20712;DHT22;10517;50.742;4.224;2023-09-30T12:35:30;21.40;99.90
20712;DHT22;10517;50.742;4.224;2023-09-30T12:37:57;21.40;99.90
20712;DHT22;10517;50.742;4.224;2023-09-30T12:40:23;21.40;99.90
20712;DHT22;10517;50.742;4.224;2023-09-30T12:42:49;21.10;99.90
20712;DHT22;10517;50.742;4.224;2023-09-30T12:45:15;21.10;99.90
20712;DHT22;10517;50.742;4.224;2023-09-30T12:47:44;21.30;99.90
20712;DHT22;10517;50.742;4.224;2023-09-30T12:50:10;21.30;99.90
20712;DHT22;10517;50.742;4.224;2023-09-30T12:52:36;21.00;99.90
20712;DHT22;10517;50.742;4.224;2023-09-30T12:55:05;21.10;99.90
20712;DHT22;10517;50.742;4.224;2023-09-30T12:57:31;21.50;99.90
20712;DHT22;10517;50.742;4.224;2023-09-30T12:59:57;21.30;99.90
20712;DHT22;10517;50.742;4.224;2023-09-30T13:02:23;21.50;99.90
20712;DHT22;10517;50.742;4.224;2023-09-30T13:04:49;21.90;99.90
20712;DHT22;10517;50.742;4.224;2023-09-30T13:07:15;22.50;99.90
20712;DHT22;10517;50.742;4.224;2023-09-30T13:09:41;22.70;99.90
20712;DHT22;10517;50.742;4.224;2023-09-30T13:12:08;23.20;99.90
20712;DHT22;10517;50.742;4.224;2023-09-30T13:14:34;24.30;99.90
20712;DHT22;10517;50.742;4.224;2023-09-30T13:17:00;25.60;99.90
20712;DHT22;10517;50.742;4.224;2023-09-30T13:19:29;25.60;99.90
20712;DHT22;10517;50.742;4.224;2023-09-30T13:21:55;25.30;99.90
20712;DHT22;10517;50.742;4.224;2023-09-30T13:24:22;26.00;99.90
20712;DHT22;10517;50.742;4.224;2023-09-30T13:26:49;26.70;99.90
20712;DHT22;10517;50.742;4.224;2023-09-30T13:29:18;27.40;99.90
20712;DHT22;10517;50.742;4.224;2023-09-30T13:31:44;27.60;99.90
20712;DHT22;10517;50.742;4.224;2023-09-30T13:34:10;27.30;99.90
20712;DHT22;10517;50.742;4.224;2023-09-30T13:36:38;27.40;99.90
20712;DHT22;10517;50.742;4.224;2023-09-30T13:39:04;27.80;99.90
20712;DHT22;10517;50.742;4.224;2023-09-30T13:41:35;28.10;99.90
20712;DHT22;10517;50.742;4.224;2023-09-30T13:44:01;28.50;99.90
20712;DHT22;10517;50.742;4.224;2023-09-30T13:46:27;28.50;99.90
20712;DHT22;10517;50.742;4.224;2023-09-30T13:48:54;28.70;99.90
20712;DHT22;10517;50.742;4.224;2023-09-30T13:51:20;28.60;99.90
20712;DHT22;10517;50.742;4.224;2023-09-30T13:53:46;28.10;99.90
20712;DHT22;10517;50.742;4.224;2023-09-30T13:56:12;28.60;99.90
20712;DHT22;10517;50.742;4.224;2023-09-30T13:58:38;29.00;99.90
20712;DHT22;10517;50.742;4.224;2023-09-30T14:01:04;30.00;99.90
20712;DHT22;10517;50.742;4.224;2023-09-30T14:03:30;29.70;99.90
20712;DHT22;10517;50.742;4.224;2023-09-30T14:05:56;29.30;99.90
20712;DHT22;10517;50.742;4.224;2023-09-30T14:08:22;29.80;99.90
20712;DHT22;10517;50.742;4.224;2023-09-30T14:10:49;28.70;99.90
20712;DHT22;10517;50.742;4.224;2023-09-30T14:13:17;28.10;99.90
20712;DHT22;10517;50.742;4.224;2023-09-30T14:15:43;27.50;99.90
20712;DHT22;10517;50.742;4.224;2023-09-30T14:18:08;27.60;99.90
20712;DHT22;10517;50.742;4.224;2023-09-30T14:20:34;28.10;99.90
20712;DHT22;10517;50.742;4.224;2023-09-30T14:23:00;28.60;99.90
20712;DHT22;10517;50.742;4.224;2023-09-30T14:25:27;28.60;99.90
20712;DHT22;10517;50.742;4.224;2023-09-30T14:27:53;29.00;99.90
20712;DHT22;10517;50.742;4.224;2023-09-30T14:30:18;29.50;99.90
20712;DHT22;10517;50.742;4.224;2023-09-30T14:32:46;30.20;99.90
20712;DHT22;10517;50.742;4.224;2023-09-30T14:35:12;30.50;99.90
20712;DHT22;10517;50.742;4.224;2023-09-30T14:37:38;30.50;99.90
20712;DHT22;10517;50.742;4.224;2023-09-30T14:40:04;29.90;99.90
20712;DHT22;10517;50.742;4.224;2023-09-30T14:42:31;29.80;99.90
20712;DHT22;10517;50.742;4.224;2023-09-30T14:44:57;30.00;99.90
20712;DHT22;10517;50.742;4.224;2023-09-30T14:47:23;30.30;99.90
20712;DHT22;10517;50.742;4.224;2023-09-30T14:49:49;30.40;99.90
20712;DHT22;10517;50.742;4.224;2023-09-30T14:52:15;30.60;99.90
20712;DHT22;10517;50.742;4.224;2023-09-30T14:54:41;30.70;99.90
20712;DHT22;10517;50.742;4.224;2023-09-30T14:57:07;31.00;99.90
20712;DHT22;10517;50.742;4.224;2023-09-30T14:59:35;30.90;99.90
20712;DHT22;10517;50.742;4.224;2023-09-30T15:02:01;30.40;99.90
20712;DHT22;10517;50.742;4.224;2023-09-30T15:04:27;29.90;99.90
20712;DHT22;10517;50.742;4.224;2023-09-30T15:06:53;29.80;99.90
20712;DHT22;10517;50.742;4.224;2023-09-30T15:09:19;29.90;99.90
20712;DHT22;10517;50.742;4.224;2023-09-30T15:11:45;29.80;99.90
20712;DHT22;10517;50.742;4.224;2023-09-30T15:14:10;30.30;99.90
20712;DHT22;10517;50.742;4.224;2023-09-30T15:16:36;30.50;99.90
20712;DHT22;10517;50.742;4.224;2023-09-30T15:19:02;29.40;99.90
20712;DHT22;10517;50.742;4.224;2023-09-30T15:21:28;28.70;99.90
20712;DHT22;10517;50.742;4.224;2023-09-30T15:23:54;28.00;99.90
20712;DHT22;10517;50.742;4.224;2023-09-30T15:26:19;27.00;99.90
20712;DHT22;10517;50.742;4.224;2023-09-30T15:28:45;26.40;99.90
20712;DHT22;10517;50.742;4.224;2023-09-30T15:31:11;25.90;99.90
20712;DHT22;10517;50.742;4.224;2023-09-30T15:33:37;25.30;99.90
20712;DHT22;10517;50.742;4.224;2023-09-30T15:36:13;25.10;99.90
20712;DHT22;10517;50.742;4.224;2023-09-30T15:38:39;24.90;99.90
20712;DHT22;10517;50.742;4.224;2023-09-30T15:41:06;24.60;99.90
20712;DHT22;10517;50.742;4.224;2023-09-30T15:43:32;24.30;99.90
20712;DHT22;10517;50.742;4.224;2023-09-30T15:46:01;24.10;99.90
20712;DHT22;10517;50.742;4.224;2023-09-30T15:48:27;24.20;99.90